3e Meeting de Lille Métropole Natation - NORD-PAS-DE-CALAIS

Compétition Régionale

LILLE

Du Samedi 26 Mars 2011 au Dimanche 27 Mars 2011

Bassin de 50m

50 Nage Libre Dames

Finale A

Nom Année Temps Pts Club Pays
1 PERRIN Anaïs 1994 0:30:03 1049 C.N DU FLORIVAL FRA
2 DEWISME Julie 1994 0:30:18 1040 DUNKERQUE NATATION FRA
3 DEHAN Cyrielle 1994 0:30:34 1030 CN SÉZANNE FRA
4 TIMBERT Chloé 1996 0:30:48 1022 SECLIN NATATION FRA
5 CORON Océane 1997 0:30:49 1021 ENC ACHICOURT FRA
6 MARTIN Chloé 1995 0:30:65 1011 AVESNES NATATION FRA
7 HONDEGHEM Soazic 1996 0:30:95 993 DAUPHINS WATTRELOS FRA
8 TURPLIN Coralie 1995 0:31:04 988 CHÂTEAU-THIERRY NATATION 2000 FRA
9 TURPLIN Marine 1995 0:31:09 985 CHÂTEAU-THIERRY NATATION 2000 FRA
10 ALEXANDRE Lucie 1993 0:31:26 975 CHÂTEAU-THIERRY NATATION 2000 FRA
11 DELCAMBRE Anaïs 1994 0:31:29 973 LILLE UC NATATION FRA
12 SOBISIAK Catherine 1990 0:31:72 947 LILLE UC NATATION FRA
13 PENNEQUIN Elise 1993 0:31:75 946 SECLIN NATATION FRA
14 HAUSSAIRE Maud 1993 0:31:77 944 DAUPHINS ST-OMER FRA
15 LEGRAND Manon 1997 0:31:81 942 USO BRUAY-LA-BUISSIERE FRA
16 CAROUGE Hermance 1994 0:32:20 919 SC NATATION ABBEVILLE FRA
17 SUEUR Charlene 1997 0:32:28 915 JN COMPIÈGNE FRA
18 POURRAIN Helena 1997 0:32:57 898 JN COMPIÈGNE FRA
19 DELBOS Alice 1997 0:32:73 889 C.N DU FLORIVAL FRA
20 BATY Emilie 1985 0:33:44 849 US ST-ANDRÉ FRA
21 PHILIPPE Maëva 1993 0:34:15 810 ENC ACHICOURT FRA
22 MORY Laetitia 1987 0:34:30 802 RACING CLUB ARRAS FRA

Finale B

Nom Année Temps Pts Club Pays
1 MERCIER Amandine 1997 0:31:23 976 CHARLEVILLE-MÉZIÈRES NATATION FRA
2 DUREZ Erwina 1995 0:31:79 943 GRAVELINES NATATION FRA
3 DUFOSSE Chloé 1995 0:31:86 939 GRAVELINES NATATION FRA
4 FAIDHERBE Anaëlle 1995 0:32:08 926 MARCQ NATATION FRA
5 WILLIAMSON Capucine 1996 0:32:10 925 SC BOULOGNE-SUR-MER FRA
6 LEURQUIN Pauline 1996 0:32:12 924 HIPPOCAMPES HAUTMONT FRA
7 MONTEGNIES Marion 1995 0:32:24 917 CN CROIX FRA
8 MAUX Floriane 1994 0:32:34 911 SECLIN NATATION FRA
9 BAZIN Chloe 1995 0:32:61 896 MARCQ NATATION FRA
10 LEMERCIER Alice 1996 0:32:72 890 SC NATATION ABBEVILLE FRA
11 GIRAUDEAU Lina 1995 0:32:86 882 ASS DES SPORTS DE CHELLES FRA
12 BONDUEL Kathleen 1996 0:33:38 852 NSH JEUMONT FRA
13 TAFFIN Constance 1996 0:33:77 831 ASL CANETONS LILLERS FRA
14 KALINOWSKI Julie 1997 0:33:81 829 STADE BÉTHUNE PÉLICAN CLUB FRA
15 ROGET Pauline 1997 0:34:24 805 NSH JEUMONT FRA
16 BROSSET Charlotte 1995 0:34:36 799 RACING CLUB ARRAS FRA

Séries

Nom Année Temps Pts Club Pays
1 TIMBERT Chloé 1996 0:30:01 1050 SECLIN NATATION FRA
2 PERRIN Anaïs 1994 0:30:29 1033 C.N DU FLORIVAL FRA
3 DEHAN Cyrielle 1994 0:30:36 1029 CN SÉZANNE FRA
4 CORON Océane 1997 0:30:68 1009 ENC ACHICOURT FRA
5 DEWISME Julie 1994 0:30:77 1004 DUNKERQUE NATATION FRA
6 HONDEGHEM Soazic 1996 0:30:91 996 DAUPHINS WATTRELOS FRA
7 TURPLIN Coralie 1995 0:30:97 992 CHÂTEAU-THIERRY NATATION 2000 FRA
8 MARTIN Chloé 1995 0:30:99 991 AVESNES NATATION FRA
9 DELCAMBRE Anaïs 1994 0:31:20 978 LILLE UC NATATION FRA
10 ALEXANDRE Lucie 1993 0:31:33 970 CHÂTEAU-THIERRY NATATION 2000 FRA
11 TURPLIN Marine 1995 0:31:68 950 CHÂTEAU-THIERRY NATATION 2000 FRA
12 CAROUGE Hermance 1994 0:31:93 935 SC NATATION ABBEVILLE FRA
13 SOBISIAK Catherine 1990 0:32:04 929 LILLE UC NATATION FRA
14 DE GRAEVE Caroline 1996 0:32:10 925 NSH JEUMONT FRA
15 PENNEQUIN Elise 1993 0:32:20 919 SECLIN NATATION FRA
16 LEGRAND Manon 1997 0:32:23 918 USO BRUAY-LA-BUISSIERE FRA
17 DUFOSSE Chloé 1995 0:32:26 916 GRAVELINES NATATION FRA
18 POURRAIN Helena 1997 0:32:31 913 JN COMPIÈGNE FRA
19 SUEUR Charlene 1997 0:32:34 911 JN COMPIÈGNE FRA
20 FAIDHERBE Anaëlle 1995 0:32:36 910 MARCQ NATATION FRA
21 HAUSSAIRE Maud 1993 0:32:37 910 DAUPHINS ST-OMER FRA
22 DELBOS Alice 1997 0:32:38 909 C.N DU FLORIVAL FRA
23 MAUX Floriane 1994 0:32:40 908 SECLIN NATATION FRA
24 LEURQUIN Pauline 1996 0:32:43 906 HIPPOCAMPES HAUTMONT FRA
25 WILLIAMSON Capucine 1996 0:32:44 906 SC BOULOGNE-SUR-MER FRA
26 MERCIER Amandine 1997 0:32:49 903 CHARLEVILLE-MÉZIÈRES NATATION FRA
27 MONTEGNIES Marion 1995 0:32:55 899 CN CROIX FRA
28 DUREZ Erwina 1995 0:32:56 899 GRAVELINES NATATION FRA
29 DAMMAN Elsa 1997 0:32:65 894 DUNKERQUE NATATION FRA
30 TAFFIN Constance 1996 0:32:90 879 ASL CANETONS LILLERS FRA
31 GIRAUDEAU Lina 1995 0:32:93 878 ASS DES SPORTS DE CHELLES FRA
32 LEMERCIER Alice 1996 0:33:19 863 SC NATATION ABBEVILLE FRA
33 BATY Emilie 1985 0:33:21 862 US ST-ANDRÉ FRA
34 ROGET Pauline 1997 0:33:29 858 NSH JEUMONT FRA
35 BONDUEL Kathleen 1996 0:33:31 856 NSH JEUMONT FRA
36 KALINOWSKI Julie 1997 0:33:35 854 STADE BÉTHUNE PÉLICAN CLUB FRA
37 BAZIN Chloe 1995 0:33:35 854 MARCQ NATATION FRA
38 BOUCHET Céline 1996 0:33:49 846 DENAIN NAT. PORTE DU HAINAUT FRA
39 DEFEVER Marie 1997 0:33:69 835 GRAVELINES NATATION FRA
40 BUELENS Margaux 1996 0:33:83 828 CALAIS NATATION FRA
41 BERTAUX Agathe 1996 0:33:92 823 ASL CANETONS LILLERS FRA
42 PHILIPPE Maëva 1993 0:33:93 822 ENC ACHICOURT FRA
43 THOURY Manon 1997 0:34:41 796 CN DES COMMUNES DE L'ATTICHOIS FRA
44 BROSSET Charlotte 1995 0:34:56 788 RACING CLUB ARRAS FRA
45 MORY Laetitia 1987 0:34:70 781 RACING CLUB ARRAS FRA
46 ABDELLI Sarah 1996 0:35:86 720 NSH JEUMONT FRA
47 VERBEKE Julie 1994 0:36:29 698 US ST-ANDRÉ FRA
48 SOLA Léa 1996 0:36:99 663 SECLIN NATATION FRA
49 PETITPREZ Céline 1996 0:38:38 597 SECLIN NATATION FRA
RACING CLUB ARRAS